Latest Weather Observations for Gelantipy

IDV60801

Issued at 4:32 pm EDT Friday 12 February 2016 (issued every 30 minutes, with the page automatically refreshed every 10 minutes)

About weather observations | Map of weather stations | Latest weather observations for VIC | Other Formats
Station Details ID: 084142 Name: GELANTIPY Lat: -37.22 Lon: 148.26 Height: 755.0 m
Data from the previous 72 hours. | See also: Recent months at Gelantipy
Date/Time
EDT
Temp
°C
App
Temp
°C
Dew
Point
Rel
Hum
%
Delta-T
°C
Wind Press
QNH
hPa
Press
MSL
hPa
Rain
since 9 am
mm
Dir
 
Spd
km/h
Gust
km/h
Spd
kts
Gust
kts
12/04:30pm 24.4 23.2 13.9 52 6.4 S 13 19 7 10 1014.9 1012.1 0.0
12/04:00pm 24.7 23.9 15.1 55 5.9 S 13 20 7 11 1015.1 1012.3 0.0
12/03:30pm 24.7 23.3 14.5 53 6.3 S 15 22 8 12 1015.3 1012.5 0.0
12/03:00pm 25.5 24.4 13.0 46 7.5 S 11 17 6 9 1015.6 1012.7 0.0
12/02:30pm 24.8 25.1 15.1 54 6.0 S 7 13 4 7 1015.8 1013.0 0.0
12/02:00pm 25.1 25.2 15.4 55 6.0 S 9 17 5 9 1016.1 1013.3 0.0
12/01:30pm 25.0 25.3 17.0 61 5.1 SW 11 19 6 10 1016.3 1013.5 0.0
12/01:00pm 24.1 24.4 17.1 65 4.5 ENE 11 17 6 9 1016.5 1013.7 0.0
12/12:30pm 22.9 23.8 17.6 72 3.4 ENE 9 15 5 8 1016.8 1014.1 0.0
12/12:00pm 22.0 22.6 16.9 73 3.2 ENE 9 15 5 8 1017.3 1014.5 0.0
12/11:30am 20.6 20.7 16.4 77 2.6 NE 11 17 6 9 1017.4 1014.6 0.0
12/11:00am 19.4 19.0 15.1 76 2.6 NE 11 17 6 9 1017.5 1014.7 0.0
12/10:30am 18.3 18.4 15.6 84 1.6 NNE 9 15 5 8 1017.7 1014.9 0.0
12/10:00am 17.7 18.0 15.0 84 1.6 NE 7 13 4 7 1018.0 1015.3 0.0
12/09:30am 16.2 17.6 14.4 89 1.1 CALM 0 4 0 2 1018.3 1015.6 0.0
12/09:00am 15.4 15.7 14.4 94 0.6 SSE 6 7 3 4 1018.6 1015.8 0.0
12/08:30am 15.0 15.0 14.2 95 0.5 SSE 7 9 4 5 1018.6 1015.8 0.0
12/08:00am 14.9 15.3 13.8 93 0.6 SW 4 7 2 4 1018.2 1015.5 0.0
12/07:30am 14.7 14.2 13.7 94 0.6 W 9 11 5 6 1017.9 1015.1 0.0
12/07:00am 15.1 13.6 14.1 94 0.6 N 15 20 8 11 1017.4 1014.6 0.0
12/06:30am 15.0 13.9 14.4 96 0.4 NNE 13 20 7 11 1017.0 1014.2 0.0
12/06:00am 14.4 14.6 14.1 98 0.2 NNE 6 19 3 10 1016.6 1013.8 0.0
12/05:30am 13.7 14.4 13.4 98 0.2 N 2 6 1 3 1016.6 1013.8 0.0
12/05:00am 13.4 14.3 12.9 97 0.3 CALM 0 0 0 0 1016.5 1013.7 0.0
12/04:30am 14.0 15.1 13.5 97 0.3 CALM 0 0 0 0 1016.6 1013.8 0.0
12/04:00am 14.3 15.6 14.0 98 0.2 CALM 0 0 0 0 1016.8 1014.1 0.0
12/03:30am 14.4 15.7 14.1 98 0.2 CALM 0 0 0 0 1017.3 1014.5 0.0
12/03:00am 14.5 15.8 14.0 97 0.3 CALM 0 7 0 4 1017.4 1014.6 0.0
12/02:30am 14.6 15.5 14.1 97 0.3 ESE 2 6 1 3 1017.6 1014.8 0.0
12/02:00am 14.6 15.9 14.1 97 0.3 CALM 0 0 0 0 1017.8 1015.0 0.0
12/01:30am 14.6 16.0 14.3 98 0.2 CALM 0 0 0 0 1017.9 1015.1 0.0
12/01:00am 14.5 15.8 14.2 98 0.2 CALM 0 0 0 0 1018.0 1015.3 0.0
12/12:30am 14.3 15.6 14.0 98 0.2 CALM 0 0 0 0 1018.3 1015.6 0.0
12/12:00am 14.3 15.6 14.0 98 0.2 CALM 0 0 0 0 1018.6 1015.8 0.0
 
Date/Time
EDT
Temp
°C
App
Temp
°C
Dew
Point
Rel
Hum
%
Delta-T
°C
Wind Press
QNH
hPa
Press
MSL
hPa
Rain
since 9 am
mm
Dir
 
Spd
km/h
Gust
km/h
Spd
kts
Gust
kts
11/11:30pm 14.2 15.1 13.9 98 0.2 SW 2 7 1 4 1018.8 1016.0 0.0
11/11:00pm 14.2 15.4 13.9 98 0.2 CALM 0 0 0 0 1019.0 1016.2 0.0
11/10:30pm 14.0 15.2 13.7 98 0.2 CALM 0 0 0 0 1019.0 1016.2 0.0
11/10:00pm 13.9 15.0 13.6 98 0.2 CALM 0 2 0 1 1019.1 1016.3 0.0
11/09:30pm 13.9 13.3 13.6 98 0.2 WSW 9 11 5 6 1019.1 1016.3 0.0
11/09:00pm 14.2 14.2 13.7 97 0.3 S 6 9 3 5 1018.5 1015.7 0.0
11/08:30pm 14.6 14.1 13.8 95 0.5 SSW 9 13 5 7 1018.2 1015.5 0.0
11/08:00pm 15.2 14.4 14.1 93 0.6 S 11 19 6 10 1017.6 1014.8 0.0
11/07:30pm 15.9 15.7 14.6 92 0.8 SSW 9 15 5 8 1017.2 1014.4 0.0
11/07:00pm 16.0 15.8 14.7 92 0.8 S 9 13 5 7 1017.0 1014.2 0.0
11/06:30pm 16.3 16.1 14.8 91 0.9 S 9 13 5 7 1016.8 1014.1 0.0
11/06:00pm 16.6 16.5 15.0 90 1.0 SSW 9 15 5 8 1016.5 1013.7 0.0
11/05:30pm 16.9 16.5 15.2 90 1.0 SSW 11 19 6 10 1016.2 1013.4 0.0
11/05:00pm 17.7 17.1 15.7 88 1.2 SW 13 22 7 12 1016.0 1013.2 0.0
11/04:30pm 19.1 18.6 16.0 82 1.9 S 13 20 7 11 1015.9 1013.1 0.0
11/04:00pm 20.2 20.0 16.8 81 2.1 SSW 13 20 7 11 1015.9 1013.1 0.0
11/03:30pm 20.2 20.0 16.8 81 2.1 S 13 20 7 11 1016.0 1013.2 0.0
11/03:00pm 21.2 21.0 16.8 76 2.8 S 13 20 7 11 1016.1 1013.3 0.0
11/02:30pm 21.6 21.8 16.8 74 3.0 SSE 11 17 6 9 1016.3 1013.5 0.0
11/02:00pm 20.8 20.7 16.0 74 3.0 SSE 11 17 6 9 1016.7 1013.9 0.0
11/01:30pm 21.8 22.5 16.1 70 3.6 SW 7 11 4 6 1017.2 1014.4 0.0
11/01:00pm 20.8 21.4 15.8 73 3.1 NE 7 15 4 8 1017.4 1014.6 0.0
11/12:30pm 20.1 20.7 15.9 77 2.6 SE 7 13 4 7 1017.7 1014.9 0.0
11/12:00pm 18.1 18.6 15.5 85 1.6 SSE 7 15 4 8 1018.1 1015.4 0.0
11/11:30am 16.8 17.4 15.3 91 0.9 SSW 6 9 3 5 1018.3 1015.6 0.0
11/11:00am 15.7 17.0 15.2 97 0.3 SSE 2 6 1 3 1018.3 1015.6 0.0
11/10:30am 14.5 14.7 14.2 98 0.2 S 6 9 3 5 1018.5 1015.7 0.0
11/10:00am 14.3 14.5 14.1 99 0.1 SSE 6 7 3 4 1018.5 1015.7 0.0
11/09:30am 13.9 13.9 13.7 99 0.1 S 6 7 3 4 1018.3 1015.6 0.0
11/09:00am 13.7 13.7 13.5 99 0.1 WSW 6 7 3 4 1018.3 1015.6 0.2
11/08:30am 13.6 13.9 13.4 99 0.1 WSW 4 6 2 3 1018.1 1015.4 0.2
11/08:00am 13.5 14.5 13.3 99 0.1 CALM 0 0 0 0 1017.9 1015.1 0.2
11/07:30am 13.3 13.5 13.1 99 0.1 WNW 4 7 2 4 1017.6 1014.8 0.2
11/07:00am 13.1 13.6 12.9 99 0.1 W 2 7 1 4 1017.3 1014.5 0.2
11/06:30am 13.1 14.0 12.9 99 0.1 CALM 0 4 0 2 1016.8 1014.1 0.2
11/06:00am 12.9 12.6 12.7 99 0.1 WNW 6 9 3 5 1016.6 1013.8 0.0
11/05:30am 12.8 11.9 12.6 99 0.1 WNW 9 11 5 6 1016.5 1013.7 0.0
11/05:00am 12.8 12.3 12.5 98 0.2 W 7 9 4 5 1016.3 1013.5 0.0
11/04:30am 12.1 12.6 11.6 97 0.3 CALM 0 0 0 0 1016.2 1013.4 0.0
11/04:00am 11.1 10.1 10.2 94 0.5 SW 6 7 3 4 1016.1 1013.3 0.0
11/03:30am 11.1 10.2 9.4 89 0.9 ENE 4 6 2 3 1016.0 1013.2 0.0
11/03:00am 11.1 9.7 9.0 87 1.1 NW 6 7 3 4 1016.1 1013.3 0.0
11/02:30am 12.0 11.9 9.4 84 1.4 CALM 0 0 0 0 1016.2 1013.4 0.0
11/02:00am 11.8 11.3 9.4 85 1.3 WNW 2 6 1 3 1016.6 1013.8 0.0
11/01:30am 13.1 11.7 9.5 79 1.9 N 7 9 4 5 1016.7 1013.9 0.0
11/01:00am 12.8 12.0 9.6 81 1.7 N 4 7 2 4 1017.0 1014.2 0.0
11/12:30am 13.6 12.6 10.2 80 1.8 N 6 7 3 4 1017.0 1014.2 0.0
11/12:00am 13.5 14.0 11.7 89 1.0 CALM 0 7 0 4 1017.1 1014.3 0.0
 
Date/Time
EDT
Temp
°C
App
Temp
°C
Dew
Point
Rel
Hum
%
Delta-T
°C
Wind Press
QNH
hPa
Press
MSL
hPa
Rain
since 9 am
mm
Dir
 
Spd
km/h
Gust
km/h
Spd
kts
Gust
kts
10/11:30pm 13.7 13.4 12.6 93 0.6 N 6 11 3 6 1017.1 1014.3 0.0
10/11:00pm 14.0 13.8 13.1 94 0.5 NNE 6 11 3 6 1017.5 1014.7 0.0
10/10:30pm 14.6 14.7 13.8 95 0.5 NNW 6 9 3 5 1017.8 1015.0 0.0
10/10:00pm 14.7 13.9 14.1 96 0.4 N 11 13 6 7 1017.9 1015.1 0.0
10/09:30pm 14.6 14.5 13.8 95 0.5 NNE 7 9 4 5 1017.6 1014.8 0.0
10/09:00pm 15.0 16.2 13.9 93 0.6 CALM 0 0 0 0 1017.4 1014.6 0.0
10/08:30pm 15.8 16.0 14.3 91 0.9 SSW 6 7 3 4 1017.2 1014.4 0.0
10/08:00pm 16.5 16.9 14.7 89 1.1 S 6 9 3 5 1016.6 1013.8 0.0
10/07:30pm 17.2 17.2 15.2 88 1.2 S 9 13 5 7 1016.3 1013.5 0.0
10/07:00pm 17.7 17.4 15.5 87 1.3 S 11 17 6 9 1015.9 1013.1 0.0
10/06:30pm 17.9 18.1 15.7 87 1.3 S 9 17 5 9 1015.6 1012.7 0.0
10/06:00pm 18.0 17.0 15.6 86 1.5 S 15 20 8 11 1015.4 1012.6 0.0
10/05:30pm 17.4 16.1 15.7 90 1.0 SW 17 28 9 15 1015.3 1012.5 0.0
10/05:00pm 19.3 19.1 16.7 85 1.6 SSW 13 19 7 10 1015.0 1012.2 0.0
10/04:30pm 20.6 20.3 17.4 82 2.0 SW 15 22 8 12 1014.8 1012.0 0.0
10/04:00pm 21.9 22.1 17.7 77 2.7 S 13 20 7 11 1014.6 1011.8 0.0
10/03:30pm 23.0 23.1 17.5 71 3.5 SSW 13 19 7 10 1014.5 1011.7 0.0
10/03:00pm 23.1 23.9 18.2 74 3.2 S 11 19 6 10 1014.7 1011.9 0.0
10/02:30pm 23.0 23.2 17.7 72 3.4 S 13 20 7 11 1015.0 1012.2 0.0
10/02:00pm 22.9 23.0 17.4 71 3.5 SSW 13 17 7 9 1015.2 1012.4 0.0
10/01:30pm 22.6 23.2 18.6 78 2.6 S 13 19 7 10 1015.3 1012.5 0.0
10/01:00pm 22.5 23.1 17.6 74 3.1 S 11 17 6 9 1015.3 1012.5 0.0
10/12:30pm 22.0 22.7 18.0 78 2.6 SSE 11 17 6 9 1015.8 1013.0 0.0
10/12:00pm 21.8 22.0 17.6 77 2.7 S 13 20 7 11 1016.1 1013.3 0.0
10/11:30am 21.7 21.8 17.5 77 2.7 S 13 19 7 10 1016.1 1013.3 0.0
10/11:00am 21.8 21.9 17.4 76 2.8 SSW 13 20 7 11 1016.2 1013.4 0.0
10/10:30am 22.8 23.9 17.0 70 3.7 ESE 7 13 4 7 1016.3 1013.5 0.0
10/10:00am 22.1 23.7 15.9 68 3.9 SE 2 7 1 4 1016.3 1013.5 0.0
10/09:30am 20.9 21.5 15.7 72 3.2 NNE 7 11 4 6 1016.4 1013.6 0.0
10/09:00am 19.8 20.1 15.9 78 2.4 NNE 9 11 5 6 1016.3 1013.5 0.0
10/08:30am 18.8 19.0 15.7 82 1.9 NNE 9 13 5 7 1016.3 1013.5 0.0
10/08:00am 17.3 18.0 14.6 84 1.6 NNE 4 7 2 4 1016.3 1013.5 0.0
10/07:30am 15.3 16.1 13.8 91 0.9 ENE 2 6 1 3 1016.2 1013.4 0.0
10/07:00am 13.8 13.0 12.9 94 0.5 NNE 9 13 5 7 1016.0 1013.2 0.0
10/06:30am 14.4 15.3 12.8 90 0.9 CALM 0 6 0 3 1016.1 1013.3 0.0
10/06:00am 14.7 14.3 12.9 89 1.0 NNE 7 13 4 7 1015.7 1012.9 0.0
10/05:30am 14.8 15.9 13.5 92 0.8 CALM 0 6 0 3 1015.6 1012.7 0.0
10/05:00am 15.0 14.8 13.5 91 0.9 NE 7 11 4 6 1015.4 1012.6 0.0
10/04:30am 15.4 14.2 13.9 91 0.9 NNE 13 15 7 8 1015.3 1012.5 0.0
10/04:00am 15.8 14.3 14.2 90 0.9 NNE 15 19 8 10 1015.6 1012.7 0.0
10/03:30am 15.9 14.0 14.1 89 1.1 NNE 17 20 9 11 1015.8 1013.0 0.0
10/03:00am 16.0 14.1 14.2 89 1.1 NNE 17 24 9 13 1015.9 1013.1 0.0
10/02:30am 16.0 14.0 14.0 88 1.2 NNE 17 22 9 12 1016.1 1013.3 0.0
10/02:00am 15.9 14.8 14.4 91 0.9 NNE 13 17 7 9 1016.5 1013.7 0.0
10/01:30am 15.2 14.7 13.9 92 0.8 NNE 9 13 5 7 1017.1 1014.3 0.0
10/01:00am 15.5 14.8 14.2 92 0.8 NNE 11 13 6 7 1017.5 1014.7 0.0
10/12:30am 14.7 14.2 13.7 94 0.6 NNE 9 13 5 7 1017.8 1015.0 0.0
10/12:00am 14.7 14.2 13.9 95 0.5 NNE 9 11 5 6 1018.1 1015.4 0.0
 
Date/Time
EDT
Temp
°C
App
Temp
°C
Dew
Point
Rel
Hum
%
Delta-T
°C
Wind Press
QNH
hPa
Press
MSL
hPa
Rain
since 9 am
mm
Dir
 
Spd
km/h
Gust
km/h
Spd
kts
Gust
kts
09/11:30pm 15.2 16.5 14.1 93 0.6 CALM 0 2 0 1 1018.7 1015.9 0.0
09/11:00pm 15.2 14.8 14.1 93 0.6 NNE 9 11 5 6 1019.0 1016.2 0.0
09/10:30pm 15.7 15.9 14.6 93 0.7 NNE 7 7 4 4 1019.3 1016.6 0.0
09/10:00pm 16.2 17.7 14.6 90 0.9 CALM 0 0 0 0 1019.4 1016.7 0.0
09/09:30pm 16.7 18.2 14.7 88 1.2 CALM 0 0 0 0 1019.4 1016.7 0.0
09/09:00pm 17.3 17.8 15.1 87 1.3 WSW 6 7 3 4 1019.2 1016.5 0.0
09/08:30pm 18.1 18.6 15.0 82 1.9 SW 6 9 3 5 1019.1 1016.3 0.0
09/08:00pm 19.6 20.1 15.5 77 2.5 SW 7 9 4 5 1019.1 1016.3 0.0
09/07:30pm 21.0 21.3 16.0 73 3.1 SW 9 15 5 8 1018.9 1016.1 0.0
09/07:00pm 22.0 22.0 16.3 70 3.6 SSW 11 17 6 9 1018.7 1015.9 0.0
09/06:30pm 22.8 22.9 16.4 67 4.0 SSW 11 19 6 10 1018.6 1015.8 0.0
09/06:00pm 23.8 24.1 17.1 66 4.3 SSW 11 17 6 9 1018.5 1015.7 0.0
09/05:30pm 24.1 23.7 16.1 61 5.0 SSW 13 19 7 10 1018.7 1015.9 0.0
09/05:00pm 24.5 24.4 16.0 59 5.3 SSW 11 19 6 10 1018.9 1016.1 0.0

Other Formats:

Comma delimited format used in spreadsheet applications
http://www.bom.gov.au/fwo/IDV60801/IDV60801.94913.axf

JavaScript Object Notation format (JSON) in row-major order
http://www.bom.gov.au/fwo/IDV60801/IDV60801.94913.json